createdAt,value
2022-09-27T00:00:29.897Z,16.04
2022-09-27T00:03:00.630Z,16.04
2022-09-27T00:05:30.840Z,15.96
2022-09-27T00:08:01.318Z,16.01
2022-09-27T00:10:31.254Z,15.93
2022-09-27T00:13:04.128Z,15.71
2022-09-27T00:15:34.515Z,15.81
2022-09-27T00:18:05.413Z,16.21
2022-09-27T00:20:35.505Z,15.79
2022-09-27T00:23:05.651Z,15.64
2022-09-27T00:25:36.498Z,15.60
2022-09-27T00:28:10.275Z,15.69
2022-09-27T00:30:43.092Z,15.54
2022-09-27T00:33:16.639Z,15.42
2022-09-27T00:35:48.448Z,15.46
2022-09-27T00:38:19.475Z,15.62
2022-09-27T00:40:49.766Z,15.42
2022-09-27T00:43:24.300Z,15.45
2022-09-27T00:45:57.576Z,15.86
2022-09-27T00:48:31.404Z,15.88
2022-09-27T00:51:06.178Z,15.41
2022-09-27T00:53:49.049Z,15.19
2022-09-27T00:56:24.386Z,15.49
2022-09-27T00:59:10.555Z,15.47
2022-09-27T01:01:42.262Z,15.82
2022-09-27T01:04:17.216Z,15.90
2022-09-27T01:06:46.708Z,15.58
2022-09-27T01:09:18.287Z,16.01
2022-09-27T01:12:02.767Z,15.97
2022-09-27T01:15:13.622Z,15.91
2022-09-27T01:17:53.914Z,15.55
2022-09-27T01:20:52.163Z,15.53
2022-09-27T01:23:21.723Z,15.79
2022-09-27T01:26:28.854Z,15.68
2022-09-27T01:29:28.826Z,15.49
2022-09-27T01:32:10.589Z,15.48
2022-09-27T01:34:50.797Z,15.58
2022-09-27T01:37:46.939Z,15.38
2022-09-27T01:40:25.996Z,15.25
2022-09-27T01:43:07.811Z,15.46
2022-09-27T01:46:10.606Z,15.42
2022-09-27T01:48:47.323Z,15.41
2022-09-27T01:51:49.659Z,15.16
2022-09-27T01:54:26.149Z,15.00
2022-09-27T01:57:00.741Z,15.07
2022-09-27T01:59:43.678Z,15.15
2022-09-27T02:02:13.433Z,14.97
2022-09-27T02:04:48.759Z,14.87
2022-09-27T02:07:22.384Z,15.08
2022-09-27T02:09:59.670Z,15.31
2022-09-27T02:12:32.634Z,15.10
2022-09-27T02:15:06.388Z,15.16
2022-09-27T02:17:42.573Z,14.91
2022-09-27T02:20:17.935Z,14.93
2022-09-27T02:23:28.632Z,14.92
2022-09-27T02:26:20.264Z,14.95
2022-09-27T02:28:52.854Z,14.77
2022-09-27T02:31:23.880Z,14.95
2022-09-27T02:33:56.917Z,14.77
2022-09-27T02:36:26.088Z,15.11
2022-09-27T02:38:55.237Z,14.96
2022-09-27T02:41:24.781Z,14.91
2022-09-27T02:43:58.368Z,14.96
2022-09-27T02:46:53.530Z,15.19
2022-09-27T02:49:40.671Z,15.13
2022-09-27T02:52:28.837Z,15.00
2022-09-27T02:55:33.672Z,15.06
2022-09-27T02:59:01.096Z,14.97
2022-09-27T03:01:39.704Z,14.60
2022-09-27T03:04:14.799Z,14.56
2022-09-27T03:06:46.476Z,14.46
2022-09-27T03:09:24.013Z,14.17
2022-09-27T03:11:53.475Z,14.47
2022-09-27T03:14:21.887Z,14.11
2022-09-27T03:16:52.677Z,14.27
2022-09-27T03:19:24.764Z,14.19
2022-09-27T03:21:58.242Z,14.48
2022-09-27T03:24:26.893Z,14.25
2022-09-27T03:26:55.143Z,14.27
2022-09-27T03:29:23.016Z,13.97
2022-09-27T03:31:51.909Z,14.06
2022-09-27T03:34:22.556Z,14.23
2022-09-27T03:36:52.877Z,14.26
2022-09-27T03:39:21.418Z,14.38
2022-09-27T03:41:50.257Z,14.34
2022-09-27T03:44:19.589Z,14.50
2022-09-27T03:46:48.180Z,14.31
2022-09-27T03:49:16.204Z,14.24
2022-09-27T03:51:44.692Z,14.39
2022-09-27T03:54:14.400Z,14.05
2022-09-27T03:56:42.975Z,14.41
2022-09-27T03:59:12.877Z,14.34
2022-09-27T04:01:46.691Z,14.23
2022-09-27T04:04:17.795Z,14.35
2022-09-27T04:06:46.485Z,14.35
2022-09-27T04:09:16.281Z,14.22
2022-09-27T04:11:46.218Z,14.28
2022-09-27T04:14:16.982Z,14.15
2022-09-27T04:16:47.830Z,13.90
2022-09-27T04:19:17.063Z,14.02
2022-09-27T04:21:45.670Z,13.81
2022-09-27T04:24:14.415Z,13.87
2022-09-27T04:26:44.216Z,13.92
2022-09-27T04:29:12.913Z,14.05
2022-09-27T04:31:44.307Z,13.86
2022-09-27T04:34:16.480Z,13.86
2022-09-27T04:36:46.491Z,13.71
2022-09-27T04:39:16.858Z,13.86
2022-09-27T04:41:47.403Z,14.05
2022-09-27T04:44:17.283Z,13.91
2022-09-27T04:46:46.382Z,14.15
2022-09-27T04:49:17.682Z,13.91
2022-09-27T04:51:48.876Z,13.98
2022-09-27T04:54:18.408Z,14.24
2022-09-27T04:57:12.345Z,14.09
2022-09-27T05:00:04.387Z,13.85
2022-09-27T05:03:04.092Z,14.03
2022-09-27T05:06:13.462Z,13.83
2022-09-27T05:31:25.318Z,14.71
2022-09-27T05:34:01.533Z,14.85
2022-09-27T05:36:33.373Z,14.91
2022-09-27T05:39:05.232Z,14.83
2022-09-27T05:41:33.740Z,14.90
2022-09-27T05:44:08.638Z,15.05
2022-09-27T05:46:55.072Z,14.77
2022-09-27T05:49:25.848Z,15.06
2022-09-27T05:51:54.598Z,15.12
2022-09-27T05:54:25.997Z,15.03
2022-09-27T05:57:00.660Z,15.20
2022-09-27T05:59:31.132Z,15.11
2022-09-27T06:02:00.434Z,15.17
2022-09-27T06:04:34.959Z,15.47
2022-09-27T06:07:04.581Z,15.48
2022-09-27T06:09:33.745Z,15.40
2022-09-27T06:12:02.963Z,15.51
2022-09-27T06:14:35.743Z,15.69
2022-09-27T06:17:07.730Z,15.47
2022-09-27T06:19:37.486Z,15.69
2022-09-27T06:22:05.638Z,15.75
2022-09-27T06:24:37.546Z,15.71
2022-09-27T06:27:08.199Z,15.95
2022-09-27T06:29:37.684Z,15.94
2022-09-27T06:32:11.651Z,15.93
2022-09-27T06:34:41.879Z,16.10
2022-09-27T06:37:09.862Z,16.35
2022-09-27T06:39:38.412Z,16.19
2022-09-27T06:42:08.501Z,16.08
2022-09-27T06:44:50.777Z,16.14
2022-09-27T06:47:21.871Z,15.65
2022-09-27T06:49:51.774Z,16.13
2022-09-27T06:52:27.814Z,16.22
2022-09-27T06:54:57.178Z,16.16
2022-09-27T06:57:55.330Z,16.02
2022-09-27T07:00:27.049Z,16.18
2022-09-27T07:03:03.845Z,16.23
2022-09-27T07:05:32.312Z,16.06
2022-09-27T07:08:06.574Z,15.94
2022-09-27T07:10:37.801Z,16.28
2022-09-27T07:13:11.512Z,16.14
2022-09-27T07:15:41.650Z,16.46
2022-09-27T07:18:14.072Z,16.57
2022-09-27T07:20:41.974Z,16.65
2022-09-27T07:23:11.215Z,16.53
2022-09-27T07:25:40.468Z,16.50
2022-09-27T07:28:12.419Z,16.58
2022-09-27T07:30:44.077Z,16.70
2022-09-27T07:33:12.946Z,16.74
2022-09-27T07:35:43.186Z,16.67
2022-09-27T07:38:14.249Z,16.76
2022-09-27T07:40:43.054Z,16.62
2022-09-27T07:43:12.464Z,16.68
2022-09-27T07:45:40.886Z,16.81
2022-09-27T07:48:14.389Z,16.86
2022-09-27T07:50:45.193Z,17.16
2022-09-27T07:53:14.134Z,17.28
2022-09-27T07:55:53.457Z,16.75
2022-09-27T07:58:44.237Z,16.84
2022-09-27T08:01:13.698Z,17.08
2022-09-27T08:03:45.686Z,16.86
2022-09-27T08:06:16.838Z,16.80
2022-09-27T08:08:47.844Z,16.70
2022-09-27T08:11:21.615Z,16.59
2022-09-27T08:13:52.751Z,16.60
2022-09-27T08:16:22.305Z,16.73
2022-09-27T08:18:53.517Z,16.85
2022-09-27T08:21:23.984Z,16.77
2022-09-27T08:23:54.417Z,16.57
2022-09-27T08:26:23.558Z,16.75
2022-09-27T08:28:52.740Z,16.97
2022-09-27T08:31:22.741Z,16.83
2022-09-27T08:33:53.561Z,16.94
2022-09-27T08:36:44.282Z,17.07
2022-09-27T08:39:33.942Z,16.93
2022-09-27T08:42:26.085Z,16.74
2022-09-27T08:45:18.041Z,16.85
2022-09-27T08:47:55.442Z,16.89
2022-09-27T08:50:39.835Z,17.07
2022-09-27T08:53:18.668Z,17.05
2022-09-27T08:55:52.081Z,17.11
2022-09-27T08:58:30.585Z,17.07
2022-09-27T09:01:18.844Z,17.00
2022-09-27T09:03:50.960Z,17.07
2022-09-27T09:06:47.331Z,17.27
2022-09-27T09:09:52.142Z,16.97
2022-09-27T09:12:50.246Z,17.25
2022-09-27T09:15:56.242Z,17.12
2022-09-27T09:18:46.997Z,16.99
2022-09-27T09:21:34.850Z,17.02
2022-09-27T09:24:21.958Z,17.10
2022-09-27T09:27:00.095Z,17.41
2022-09-27T09:29:46.528Z,17.41
2022-09-27T09:32:40.900Z,17.29
2022-09-27T09:35:19.773Z,17.44
2022-09-27T09:37:54.656Z,17.29
2022-09-27T09:41:05.486Z,17.51
2022-09-27T09:43:58.127Z,17.30
2022-09-27T09:46:43.552Z,17.43
2022-09-27T09:49:30.127Z,17.37
2022-09-27T09:52:12.488Z,17.48
2022-09-27T09:54:47.315Z,17.58
2022-09-27T09:57:23.773Z,17.51
2022-09-27T09:59:58.594Z,17.30
2022-09-27T10:02:31.637Z,17.35
2022-09-27T10:05:07.839Z,17.55
2022-09-27T10:07:40.033Z,17.00
2022-09-27T10:10:11.401Z,17.22
2022-09-27T10:12:43.974Z,17.40
2022-09-27T10:15:25.307Z,17.26
2022-09-27T10:17:56.507Z,17.50
2022-09-27T10:20:45.369Z,17.46
2022-09-27T10:23:21.664Z,17.39
2022-09-27T10:25:55.806Z,17.36
2022-09-27T10:28:46.369Z,17.45
2022-09-27T10:31:18.326Z,17.69
2022-09-27T10:34:01.118Z,17.89
2022-09-27T10:36:37.049Z,17.71
2022-09-27T10:39:07.146Z,17.60
2022-09-27T10:41:41.774Z,17.58
2022-09-27T10:44:18.623Z,17.83
2022-09-27T10:46:51.336Z,17.76
2022-09-27T10:49:28.717Z,17.86
2022-09-27T10:52:37.779Z,17.69
2022-09-27T10:55:26.433Z,17.97
2022-09-27T10:58:00.119Z,18.06
2022-09-27T11:00:36.605Z,18.34
2022-09-27T11:03:59.474Z,18.11
2022-09-27T11:06:53.617Z,18.19
2022-09-27T11:09:52.926Z,18.57
2022-09-27T11:12:45.905Z,18.95
2022-09-27T12:07:11.689Z,19.06
2022-09-27T12:10:13.551Z,19.15
2022-09-27T13:29:00.265Z,19.52
2022-09-27T13:32:00.150Z,19.07
2022-09-27T13:34:56.811Z,19.32
2022-09-27T13:37:36.959Z,19.69
2022-09-27T13:40:30.828Z,19.78
2022-09-27T13:43:50.946Z,20.06
2022-09-27T13:46:26.288Z,20.06
2022-09-27T13:49:16.695Z,19.81
2022-09-27T13:52:02.234Z,19.89
2022-09-27T13:54:35.086Z,20.43
2022-09-27T13:57:47.245Z,20.24
2022-09-27T14:00:44.408Z,19.82
2022-09-27T15:32:29.699Z,17.79
2022-09-27T15:35:38.583Z,17.63
2022-09-27T15:38:38.340Z,17.78
2022-09-27T15:41:25.419Z,17.50
2022-09-27T15:44:40.117Z,17.56
2022-09-27T15:57:06.479Z,17.33
2022-09-27T15:59:51.304Z,17.27
2022-09-27T16:02:38.086Z,17.15
2022-09-27T16:05:39.857Z,16.91
2022-09-27T16:21:54.087Z,16.87
2022-09-27T16:25:09.025Z,16.73
2022-09-27T16:27:52.714Z,16.81
2022-09-27T16:31:05.323Z,16.66
2022-09-27T16:34:00.511Z,16.79
2022-09-27T16:36:45.119Z,16.54
2022-09-27T16:39:53.312Z,16.52
2022-09-27T16:42:36.582Z,16.41
2022-09-27T16:45:44.850Z,16.65
2022-09-27T16:48:32.460Z,16.53
2022-09-27T16:51:53.805Z,16.85
2022-09-27T16:54:41.590Z,16.61
2022-09-27T17:13:07.387Z,16.32
2022-09-27T17:25:41.930Z,16.06
2022-09-27T17:28:26.719Z,16.07
2022-09-27T17:31:29.366Z,16.05
2022-09-27T17:34:17.333Z,15.97
2022-09-27T17:37:25.349Z,15.75
2022-09-27T17:40:16.574Z,16.05
2022-09-27T17:43:24.636Z,16.03
2022-09-27T17:46:13.892Z,16.17
2022-09-27T17:49:15.378Z,16.07
2022-09-27T18:32:33.689Z,15.93
2022-09-27T18:35:32.040Z,15.95
2022-09-27T18:38:19.964Z,15.85
2022-09-27T18:41:28.295Z,16.10
2022-09-27T18:44:18.211Z,16.23
2022-09-27T19:05:49.087Z,16.09
2022-09-27T19:08:32.017Z,15.56
2022-09-27T19:11:18.651Z,15.93
2022-09-27T19:23:34.721Z,15.69
2022-09-27T19:26:58.186Z,15.59
2022-09-27T19:29:43.699Z,15.77
2022-09-27T19:32:32.954Z,15.68
2022-09-27T19:35:16.343Z,15.99
2022-09-27T19:58:57.421Z,15.96
2022-09-27T20:01:59.968Z,15.85
2022-09-27T20:04:55.824Z,16.11
2022-09-27T20:07:59.169Z,15.73
2022-09-27T20:10:56.706Z,15.85
2022-09-27T20:17:02.954Z,15.66
2022-09-27T20:19:50.814Z,15.52
2022-09-27T20:22:37.825Z,15.73
2022-09-27T20:47:13.575Z,15.80
2022-09-27T20:49:59.191Z,15.70
2022-09-27T20:52:52.912Z,15.50
2022-09-27T20:55:56.393Z,15.40
2022-09-27T20:58:42.370Z,15.31
2022-09-27T21:01:54.649Z,15.36
2022-09-27T21:04:48.943Z,15.69
2022-09-27T21:08:00.238Z,15.67
2022-09-27T21:56:53.395Z,15.33
2022-09-27T22:00:06.833Z,15.36
2022-09-27T22:02:59.344Z,15.50
2022-09-27T22:12:08.457Z,15.17
2022-09-27T22:14:58.067Z,15.29
2022-09-27T22:17:45.652Z,15.15
2022-09-27T22:20:38.246Z,15.08
2022-09-27T22:23:28.118Z,15.33
2022-09-27T22:26:28.618Z,15.02
2022-09-27T23:17:12.413Z,14.62
2022-09-27T23:19:56.629Z,14.57
2022-09-27T23:22:41.655Z,14.62
2022-09-27T23:25:33.966Z,14.64
2022-09-27T23:28:43.100Z,14.56
2022-09-27T23:31:48.016Z,14.65
2022-09-27T23:34:34.565Z,14.65
2022-09-27T23:37:55.726Z,14.49
2022-09-27T23:40:46.892Z,14.58
2022-09-27T23:43:33.708Z,14.55
2022-09-27T23:46:21.510Z,14.58
2022-09-27T23:49:17.573Z,14.67
2022-09-27T23:52:07.091Z,14.68
2022-09-27T23:54:58.526Z,14.76
2022-09-27T23:57:48.735Z,14.57
